Time;durP1;ratioP1;P1;durP2;ratioP2;P2;SDS_P1;SDS_P2;PMS_P1;PMS_P2;Temp;Humidity;BMP_temperature;BMP_pressure;BME280_temperature;BME280_humidity;BME280_pressure;Samples;Min_cycle;Max_cycle;Signal;HPM_P1;HPM_P2
2023/09/19 00:00:37;;;;;;;14.02;2.92;;;15.50;99.90;;;;;;5014132;28;20172;-70
2023/09/19 00:03:04;;;;;;;11.07;2.88;;;15.50;99.90;;;;;;5013209;28;20058;-71
2023/09/19 00:05:34;;;;;;;10.68;2.47;;;15.40;99.90;;;;;;5014033;28;20060;-81
2023/09/19 00:08:01;;;;;;;16.25;2.60;;;15.40;99.90;;;;;;5014074;28;20416;-70
2023/09/19 00:10:30;;;;;;;10.10;2.45;;;15.40;99.90;;;;;;5013963;28;20494;-71
2023/09/19 00:13:00;;;;;;;11.25;2.63;;;15.30;99.90;;;;;;4996667;28;20054;-71
2023/09/19 00:15:28;;;;;;;9.73;3.08;;;15.30;99.90;;;;;;5013525;28;20096;-74
2023/09/19 00:17:57;;;;;;;8.55;2.17;;;15.30;99.90;;;;;;5012143;28;20102;-71
2023/09/19 00:20:24;;;;;;;8.15;2.28;;;15.30;99.90;;;;;;5012491;28;20053;-71
2023/09/19 00:22:51;;;;;;;10.40;2.70;;;15.20;99.90;;;;;;4996032;28;20073;-70
2023/09/19 00:25:18;;;;;;;11.02;2.70;;;15.20;99.90;;;;;;4996403;28;20125;-71
2023/09/19 00:27:44;;;;;;;9.50;2.47;;;15.20;99.90;;;;;;5011899;28;20055;-70
2023/09/19 00:30:19;;;;;;;11.70;2.95;;;15.20;99.90;;;;;;4996118;28;20491;-70
2023/09/19 00:32:49;;;;;;;13.02;2.55;;;15.20;99.90;;;;;;5012097;28;20392;-71
2023/09/19 00:35:15;;;;;;;9.68;2.88;;;15.20;99.90;;;;;;5013845;28;20057;-71
2023/09/19 00:37:41;;;;;;;8.63;2.20;;;15.20;99.90;;;;;;5013029;28;20041;-71
2023/09/19 00:40:15;;;;;;;7.93;2.40;;;15.20;99.90;;;;;;5013503;28;20046;-70
2023/09/19 00:42:42;;;;;;;8.60;2.40;;;15.20;99.90;;;;;;4996294;28;20427;-70
2023/09/19 00:45:12;;;;;;;10.05;2.72;;;15.20;99.90;;;;;;5013486;28;20054;-73
2023/09/19 00:47:48;;;;;;;14.45;2.75;;;15.10;99.90;;;;;;5012354;28;20094;-81
2023/09/19 00:50:17;;;;;;;13.18;2.63;;;15.10;99.90;;;;;;5013359;28;20041;-71
2023/09/19 00:52:43;;;;;;;15.45;2.65;;;15.10;99.90;;;;;;5011725;28;20407;-70
2023/09/19 00:55:10;;;;;;;10.32;2.22;;;15.10;99.90;;;;;;5012383;28;20121;-70
2023/09/19 00:57:40;;;;;;;12.32;2.53;;;15.00;99.90;;;;;;5012546;28;20056;-71
2023/09/19 01:00:11;;;;;;;11.90;3.00;;;15.00;99.90;;;;;;5012209;28;20054;-71
2023/09/19 01:02:37;;;;;;;8.27;2.40;;;15.00;99.90;;;;;;5013180;28;20050;-70
2023/09/19 01:05:04;;;;;;;12.13;2.65;;;14.90;99.90;;;;;;4995429;28;20049;-69
2023/09/19 01:07:31;;;;;;;9.43;2.40;;;14.90;99.90;;;;;;5011714;28;20124;-70
2023/09/19 01:10:00;;;;;;;9.35;2.55;;;14.90;99.90;;;;;;4995185;28;20053;-70
2023/09/19 01:13:05;;;;;;;9.73;2.60;;;14.90;99.90;;;;;;5013156;28;20053;-70
2023/09/19 01:15:43;;;;;;;11.18;2.45;;;14.80;99.90;;;;;;5013146;28;20050;-70
2023/09/19 01:18:28;;;;;;;9.65;2.50;;;14.70;99.90;;;;;;5013304;28;20076;-71
2023/09/19 01:21:10;;;;;;;14.52;3.10;;;14.60;99.90;;;;;;5011730;28;20053;-70
2023/09/19 01:23:41;;;;;;;12.23;2.60;;;14.60;99.90;;;;;;5012167;28;20089;-70
2023/09/19 01:26:44;;;;;;;9.93;2.30;;;14.60;99.90;;;;;;5011661;28;20136;-70
2023/09/19 01:29:33;;;;;;;12.68;2.38;;;14.50;99.90;;;;;;5012717;28;20053;-70
2023/09/19 01:32:02;;;;;;;12.07;2.90;;;14.50;99.90;;;;;;5010978;28;20407;-69
2023/09/19 01:34:48;;;;;;;9.35;2.10;;;14.40;99.90;;;;;;5012735;28;20387;-70
2023/09/19 01:37:19;;;;;;;9.10;2.38;;;14.40;99.90;;;;;;5045014;28;20086;-70
2023/09/19 01:39:48;;;;;;;10.20;2.33;;;14.40;99.90;;;;;;4995492;28;20057;-81
2023/09/19 01:43:00;;;;;;;11.20;2.63;;;14.40;99.90;;;;;;5011556;28;20053;-70
2023/09/19 01:45:41;;;;;;;12.15;2.92;;;14.40;99.90;;;;;;4994002;28;20066;-70
2023/09/19 01:48:40;;;;;;;9.05;2.25;;;14.40;99.90;;;;;;5011384;28;20265;-70
2023/09/19 01:51:07;;;;;;;8.75;2.45;;;14.30;99.90;;;;;;5011196;28;20603;-70
2023/09/19 01:53:49;;;;;;;10.80;2.45;;;14.30;99.90;;;;;;5012585;28;20053;-69
2023/09/19 01:56:25;;;;;;;9.75;2.28;;;14.30;99.90;;;;;;5015596;28;20137;-70
2023/09/19 01:58:54;;;;;;;12.13;2.72;;;14.30;99.90;;;;;;5015120;28;20054;-71
2023/09/19 02:01:24;;;;;;;8.35;1.95;;;14.20;99.90;;;;;;4998401;28;20045;-76
2023/09/19 02:03:50;;;;;;;13.10;2.60;;;14.30;99.90;;;;;;5015023;28;20149;-79
2023/09/19 02:06:18;;;;;;;13.13;3.05;;;14.20;99.90;;;;;;5015375;28;20064;-70
2023/09/19 02:08:45;;;;;;;9.40;2.67;;;14.20;99.90;;;;;;4998258;28;20054;-70
2023/09/19 02:11:12;;;;;;;10.68;2.60;;;14.20;99.90;;;;;;5014589;28;20185;-70
2023/09/19 02:13:39;;;;;;;9.55;2.47;;;14.20;99.90;;;;;;5014827;28;20565;-71
2023/09/19 02:16:06;;;;;;;9.45;2.33;;;14.20;99.90;;;;;;5014861;28;20099;-70
2023/09/19 02:18:34;;;;;;;12.35;2.95;;;14.20;99.90;;;;;;4999288;28;20061;-72
2023/09/19 02:21:01;;;;;;;8.18;2.33;;;14.20;99.90;;;;;;5030643;28;20139;-71
2023/09/19 02:23:27;;;;;;;12.40;2.33;;;14.20;99.90;;;;;;5015101;28;20049;-71
2023/09/19 02:26:06;;;;;;;7.10;2.30;;;14.20;99.90;;;;;;5014746;28;20038;-82
2023/09/19 02:28:32;;;;;;;8.70;2.35;;;14.20;99.90;;;;;;4999968;28;20476;-70
2023/09/19 02:30:58;;;;;;;8.68;2.50;;;14.10;99.90;;;;;;5014286;28;20048;-70
2023/09/19 02:33:24;;;;;;;15.52;2.92;;;14.10;99.90;;;;;;5014637;28;20100;-70
2023/09/19 02:35:54;;;;;;;8.25;2.22;;;14.00;99.90;;;;;;5014650;28;20037;-70
2023/09/19 02:38:24;;;;;;;6.47;2.30;;;14.00;99.90;;;;;;5015743;28;20399;-71
2023/09/19 02:40:50;;;;;;;11.43;2.65;;;14.00;99.90;;;;;;4997409;28;20056;-72
2023/09/19 02:43:17;;;;;;;7.90;2.05;;;14.00;99.90;;;;;;5013885;28;20099;-73
2023/09/19 02:45:43;;;;;;;7.82;2.10;;;13.90;99.90;;;;;;5014635;28;20140;-72
2023/09/19 02:48:08;;;;;;;9.13;2.20;;;13.90;99.90;;;;;;4997934;28;20120;-72
2023/09/19 02:50:34;;;;;;;7.97;2.20;;;13.90;99.90;;;;;;5015372;28;20587;-72
2023/09/19 02:53:00;;;;;;;10.68;2.30;;;13.90;99.90;;;;;;4997707;28;20050;-72
2023/09/19 02:55:26;;;;;;;10.85;2.50;;;13.90;99.90;;;;;;5014046;28;20456;-72
2023/09/19 02:57:56;;;;;;;13.63;2.33;;;13.90;99.90;;;;;;5014197;28;20149;-72
2023/09/19 03:00:23;;;;;;;6.82;2.40;;;13.80;99.90;;;;;;5015093;28;20058;-73
2023/09/19 03:02:50;;;;;;;9.75;2.63;;;13.80;99.90;;;;;;5014331;28;20107;-73
2023/09/19 03:05:16;;;;;;;8.85;2.35;;;13.80;99.90;;;;;;5014425;28;20182;-72
2023/09/19 03:07:43;;;;;;;9.70;2.78;;;13.80;99.90;;;;;;5015038;28;20069;-71
2023/09/19 03:10:09;;;;;;;7.10;2.00;;;13.80;99.90;;;;;;5014689;28;20057;-76
2023/09/19 03:12:35;;;;;;;9.68;2.38;;;13.80;99.90;;;;;;5014933;28;20052;-72
2023/09/19 03:15:01;;;;;;;12.52;2.70;;;13.80;99.90;;;;;;5013404;28;20120;-73
2023/09/19 03:17:27;;;;;;;9.00;2.78;;;13.80;99.90;;;;;;5015003;28;20048;-72
2023/09/19 03:19:53;;;;;;;10.57;2.63;;;13.80;99.90;;;;;;5014950;28;20049;-72
2023/09/19 03:22:20;;;;;;;14.63;2.53;;;13.70;99.90;;;;;;5013275;28;20053;-72
2023/09/19 03:24:46;;;;;;;8.45;2.35;;;13.70;99.90;;;;;;4997782;28;20050;-75
2023/09/19 03:27:15;;;;;;;10.65;2.38;;;13.70;99.90;;;;;;5013408;28;20080;-72
2023/09/19 03:29:42;;;;;;;10.48;2.63;;;13.70;99.90;;;;;;5013681;28;20050;-72
2023/09/19 03:32:10;;;;;;;9.80;2.17;;;13.70;99.90;;;;;;5013135;28;20056;-71
2023/09/19 03:34:40;;;;;;;13.98;2.70;;;13.70;99.90;;;;;;5014648;28;20054;-72
2023/09/19 03:37:06;;;;;;;7.85;2.20;;;13.70;99.90;;;;;;5014073;28;20050;-72
2023/09/19 03:39:32;;;;;;;8.55;2.30;;;13.70;99.90;;;;;;5014589;28;20049;-72
2023/09/19 03:41:58;;;;;;;8.50;2.30;;;13.70;99.90;;;;;;5014482;28;20042;-72
2023/09/19 03:44:24;;;;;;;9.82;2.45;;;13.70;99.90;;;;;;5014193;28;20038;-72
2023/09/19 03:46:49;;;;;;;13.45;2.53;;;13.70;99.90;;;;;;5013339;28;20042;-72
2023/09/19 03:49:15;;;;;;;8.57;2.40;;;13.80;99.90;;;;;;4996712;28;20400;-72
2023/09/19 03:51:41;;;;;;;9.25;2.50;;;13.70;99.90;;;;;;5013101;28;20046;-71
2023/09/19 03:54:07;;;;;;;8.13;2.50;;;13.70;99.90;;;;;;5012737;28;20069;-73
2023/09/19 03:56:33;;;;;;;12.15;2.42;;;13.70;99.90;;;;;;5014009;28;20045;-72
2023/09/19 03:58:59;;;;;;;7.57;2.58;;;13.70;99.90;;;;;;5012856;28;20108;-72
2023/09/19 04:01:27;;;;;;;10.77;2.60;;;13.70;99.90;;;;;;5012080;28;20037;-72
2023/09/19 04:03:53;;;;;;;8.48;2.60;;;13.70;99.90;;;;;;5013882;28;20461;-73
2023/09/19 04:06:19;;;;;;;6.53;2.08;;;13.60;99.90;;;;;;5013589;28;20086;-72
2023/09/19 04:08:47;;;;;;;11.45;2.80;;;13.60;99.90;;;;;;5013479;28;20054;-72
2023/09/19 04:11:13;;;;;;;11.25;2.67;;;13.60;99.90;;;;;;5013504;28;20054;-72
2023/09/19 04:13:38;;;;;;;11.40;2.78;;;13.60;99.90;;;;;;5014012;28;20059;-72
2023/09/19 04:16:04;;;;;;;8.43;2.45;;;13.60;99.90;;;;;;5012392;28;20480;-73
2023/09/19 04:18:37;;;;;;;8.45;2.40;;;13.60;99.90;;;;;;5011463;28;20052;-72
2023/09/19 04:21:05;;;;;;;8.00;2.33;;;13.70;99.90;;;;;;5013851;28;20058;-72
2023/09/19 04:23:31;;;;;;;12.00;2.50;;;13.70;99.90;;;;;;5012129;28;20129;-72
2023/09/19 04:25:58;;;;;;;12.35;2.75;;;13.60;99.90;;;;;;5012544;28;20049;-73
2023/09/19 04:28:24;;;;;;;10.27;2.40;;;13.60;99.90;;;;;;5012108;28;20046;-72
2023/09/19 04:30:50;;;;;;;9.55;2.00;;;13.60;99.90;;;;;;4995980;28;20056;-72
2023/09/19 04:33:16;;;;;;;11.30;2.80;;;13.60;99.90;;;;;;5011513;28;20136;-72
2023/09/19 04:35:44;;;;;;;10.57;2.25;;;13.60;99.90;;;;;;5013438;28;20123;-72
2023/09/19 04:38:11;;;;;;;11.82;2.45;;;13.60;99.90;;;;;;5012913;28;20064;-77
2023/09/19 04:40:39;;;;;;;8.20;2.63;;;13.60;99.90;;;;;;5012845;28;20054;-72
2023/09/19 04:43:05;;;;;;;7.82;2.72;;;13.70;99.90;;;;;;5013270;28;20046;-72
2023/09/19 04:45:31;;;;;;;8.25;2.45;;;13.60;99.90;;;;;;4995496;28;20634;-71
2023/09/19 04:47:57;;;;;;;9.88;2.85;;;13.70;99.90;;;;;;5011442;28;20038;-72
2023/09/19 04:50:24;;;;;;;8.43;2.78;;;13.70;99.90;;;;;;5011161;28;20100;-72
2023/09/19 04:52:50;;;;;;;8.07;2.72;;;13.70;99.90;;;;;;5011771;28;20369;-72
2023/09/19 04:55:18;;;;;;;8.35;2.50;;;13.70;99.90;;;;;;5011467;28;20085;-71
2023/09/19 04:57:48;;;;;;;9.77;2.50;;;13.70;99.90;;;;;;5027908;28;20503;-71
2023/09/19 05:00:23;;;;;;;6.60;2.05;;;13.60;99.90;;;;;;5011677;28;20054;-75
2023/09/19 05:02:55;;;;;;;11.30;2.90;;;13.60;99.90;;;;;;5013224;28;20054;-72
2023/09/19 05:05:22;;;;;;;7.97;2.30;;;13.60;99.90;;;;;;5012731;28;20046;-70
2023/09/19 05:07:48;;;;;;;10.80;2.45;;;13.70;99.90;;;;;;4979135;28;20058;-72
2023/09/19 05:10:14;;;;;;;9.30;2.08;;;13.60;99.90;;;;;;5012736;28;20042;-75
2023/09/19 05:12:41;;;;;;;7.40;2.17;;;13.70;99.90;;;;;;5012278;28;20538;-72
2023/09/19 05:15:07;;;;;;;10.63;2.10;;;13.70;99.90;;;;;;5012616;28;20037;-72
2023/09/19 05:17:34;;;;;;;11.15;2.42;;;13.60;99.90;;;;;;5011025;28;20136;-72
2023/09/19 05:20:05;;;;;;;7.88;2.40;;;13.60;99.90;;;;;;5012459;28;20094;-72
2023/09/19 05:22:32;;;;;;;9.75;2.40;;;13.60;99.90;;;;;;5011740;28;20488;-72
2023/09/19 05:24:58;;;;;;;8.10;2.38;;;13.60;99.90;;;;;;5012462;28;20097;-74
2023/09/19 05:27:24;;;;;;;7.20;2.53;;;13.60;99.90;;;;;;5011791;28;20176;-73
2023/09/19 05:29:53;;;;;;;8.13;2.53;;;13.70;99.90;;;;;;5012000;28;20522;-72
2023/09/19 05:32:19;;;;;;;14.02;2.65;;;13.70;99.90;;;;;;5010677;28;20454;-76
2023/09/19 05:34:46;;;;;;;11.98;2.47;;;13.70;99.90;;;;;;5012631;28;20054;-70
2023/09/19 05:37:13;;;;;;;8.60;2.45;;;13.70;99.90;;;;;;5013629;28;20522;-72
2023/09/19 05:39:39;;;;;;;8.73;2.45;;;13.70;99.90;;;;;;5013923;28;20048;-72
2023/09/19 05:42:04;;;;;;;12.05;2.70;;;13.80;99.90;;;;;;5014176;28;20121;-73
2023/09/19 05:44:31;;;;;;;11.38;2.45;;;13.80;99.90;;;;;;5011058;28;20050;-72
2023/09/19 05:46:57;;;;;;;6.47;2.40;;;13.70;99.90;;;;;;5011690;28;20054;-74
2023/09/19 05:49:24;;;;;;;13.38;2.25;;;13.80;99.90;;;;;;5010787;28;20038;-73
2023/09/19 05:51:53;;;;;;;10.05;2.25;;;13.80;99.90;;;;;;5012502;28;20092;-72
2023/09/19 05:54:20;;;;;;;9.80;2.47;;;13.80;99.90;;;;;;5011164;28;20400;-71
2023/09/19 05:56:47;;;;;;;8.68;2.30;;;13.90;99.90;;;;;;5010973;28;20049;-72
2023/09/19 05:59:15;;;;;;;10.77;2.45;;;13.90;99.90;;;;;;5012118;28;20408;-74
2023/09/19 06:01:43;;;;;;;10.10;3.10;;;13.90;99.90;;;;;;5011899;28;20056;-71
2023/09/19 06:04:09;;;;;;;9.88;2.60;;;14.00;99.90;;;;;;4994750;28;20131;-70
2023/09/19 06:06:38;;;;;;;15.82;3.10;;;14.00;99.90;;;;;;5010585;28;20046;-72
2023/09/19 06:09:08;;;;;;;10.02;2.55;;;14.00;99.90;;;;;;5011522;28;20140;-72
2023/09/19 06:11:37;;;;;;;10.48;2.50;;;14.00;99.90;;;;;;5011825;28;20330;-72
2023/09/19 06:14:03;;;;;;;9.90;3.00;;;14.00;99.90;;;;;;5011936;28;20057;-72
2023/09/19 06:16:32;;;;;;;9.48;2.58;;;14.00;99.90;;;;;;5011946;28;20049;-71
2023/09/19 06:18:59;;;;;;;10.30;2.45;;;14.00;99.90;;;;;;5012399;28;20395;-75
2023/09/19 06:21:28;;;;;;;8.15;2.63;;;14.00;99.90;;;;;;5011212;28;20052;-79
2023/09/19 06:23:55;;;;;;;11.32;2.53;;;14.10;99.90;;;;;;5008536;28;20050;-74
2023/09/19 06:26:20;;;;;;;6.97;2.28;;;14.10;99.90;;;;;;5009360;28;20054;-75
2023/09/19 06:28:46;;;;;;;9.02;2.38;;;14.10;99.90;;;;;;5007959;28;20045;-74
2023/09/19 06:31:12;;;;;;;9.60;2.60;;;14.20;99.90;;;;;;5009348;28;20057;-73
2023/09/19 06:33:43;;;;;;;9.98;2.90;;;14.20;99.90;;;;;;5007942;28;20483;-73
2023/09/19 06:36:08;;;;;;;8.07;2.33;;;14.20;99.90;;;;;;5006283;28;20125;-80
2023/09/19 06:38:36;;;;;;;9.73;2.83;;;14.30;99.90;;;;;;5009064;28;20125;-80
2023/09/19 06:41:04;;;;;;;10.20;3.05;;;14.30;99.90;;;;;;5012229;28;20042;-77
2023/09/19 06:43:31;;;;;;;10.02;2.30;;;14.40;99.90;;;;;;5013880;28;20070;-75
2023/09/19 06:45:57;;;;;;;9.90;2.83;;;14.40;99.90;;;;;;5010301;28;20046;-76
2023/09/19 06:48:24;;;;;;;11.77;2.60;;;14.50;99.90;;;;;;4995829;28;20116;-77
2023/09/19 06:50:52;;;;;;;7.20;2.28;;;14.50;99.90;;;;;;5013116;28;20493;-75
2023/09/19 06:53:18;;;;;;;13.23;2.75;;;14.50;99.90;;;;;;4996632;28;20057;-76
2023/09/19 06:55:45;;;;;;;8.65;2.45;;;14.60;99.90;;;;;;5013474;28;20141;-75
2023/09/19 06:58:11;;;;;;;10.90;2.30;;;14.70;99.90;;;;;;5014667;28;20081;-75
2023/09/19 07:00:37;;;;;;;11.98;2.70;;;14.70;99.90;;;;;;5013058;28;20491;-73
2023/09/19 07:03:11;;;;;;;15.63;3.00;;;14.80;99.90;;;;;;5013579;28;20116;-74
2023/09/19 07:05:38;;;;;;;10.63;2.55;;;14.80;99.90;;;;;;5013178;28;20038;-75
2023/09/19 07:08:06;;;;;;;9.75;3.00;;;14.90;99.90;;;;;;5014151;28;20467;-75
2023/09/19 07:10:33;;;;;;;8.93;2.17;;;15.00;99.90;;;;;;5013091;28;20041;-75
2023/09/19 07:13:11;;;;;;;9.60;2.65;;;15.10;99.90;;;;;;5013364;28;20139;-67
2023/09/19 07:15:46;;;;;;;10.80;2.65;;;15.10;99.90;;;;;;5014365;28;20046;-68
2023/09/19 07:18:14;;;;;;;10.05;2.70;;;15.20;99.90;;;;;;5014752;28;20050;-72
2023/09/19 07:20:48;;;;;;;9.70;2.75;;;15.30;99.90;;;;;;5014107;28;20081;-70
2023/09/19 07:23:21;;;;;;;12.15;2.20;;;15.40;99.90;;;;;;5013297;28;20457;-71
2023/09/19 07:25:48;;;;;;;10.23;3.08;;;15.50;99.90;;;;;;5014221;28;20109;-69
2023/09/19 07:28:14;;;;;;;11.77;2.60;;;15.50;99.90;;;;;;5014493;28;20160;-70
2023/09/19 07:30:41;;;;;;;13.40;3.20;;;15.60;99.90;;;;;;5014192;28;20090;-71
2023/09/19 07:33:11;;;;;;;10.48;2.70;;;15.60;99.90;;;;;;5012979;28;20080;-71
2023/09/19 07:35:39;;;;;;;12.55;2.20;;;15.70;99.90;;;;;;5014188;28;20137;-74
2023/09/19 07:38:06;;;;;;;8.27;2.55;;;15.80;99.90;;;;;;5014364;28;20046;-71
2023/09/19 07:40:31;;;;;;;10.25;2.30;;;15.80;99.90;;;;;;5013485;28;20506;-70
2023/09/19 07:43:01;;;;;;;8.18;2.42;;;16.00;99.90;;;;;;5012449;28;20045;-72
2023/09/19 07:45:29;;;;;;;13.48;2.75;;;16.10;99.90;;;;;;5014227;28;20056;-72
2023/09/19 07:47:56;;;;;;;10.43;2.90;;;16.30;99.90;;;;;;4997746;28;20045;-73
2023/09/19 07:50:22;;;;;;;11.40;2.55;;;16.70;99.90;;;;;;5015420;28;20049;-74
2023/09/19 07:52:50;;;;;;;11.43;2.35;;;17.10;99.90;;;;;;4996904;28;20053;-74
2023/09/19 07:55:25;;;;;;;11.20;2.63;;;17.30;99.90;;;;;;4998196;28;20054;-72
2023/09/19 07:57:54;;;;;;;11.48;2.67;;;17.50;99.90;;;;;;5017289;28;20133;-74
2023/09/19 08:00:20;;;;;;;12.52;2.97;;;17.60;99.90;;;;;;4998166;28;20091;-80
2023/09/19 08:02:47;;;;;;;8.65;2.83;;;17.70;99.90;;;;;;5012075;28;20046;-72
2023/09/19 08:05:16;;;;;;;7.90;2.67;;;17.80;99.90;;;;;;5014056;28;20049;-72
2023/09/19 08:07:45;;;;;;;11.85;2.70;;;17.70;99.90;;;;;;5014443;28;20069;-71
2023/09/19 08:10:15;;;;;;;12.82;3.25;;;17.90;99.90;;;;;;4997039;28;20085;-71
2023/09/19 08:12:48;;;;;;;9.80;2.75;;;18.30;99.90;;;;;;5012630;28;20060;-79
2023/09/19 08:15:19;;;;;;;8.40;2.60;;;18.80;99.90;;;;;;4997330;28;20427;-71
2023/09/19 08:17:45;;;;;;;10.95;2.78;;;19.50;99.90;;;;;;4996048;28;20064;-78
2023/09/19 08:20:21;;;;;;;8.38;2.83;;;20.10;99.90;;;;;;5013980;28;20061;-74
2023/09/19 08:22:49;;;;;;;17.75;3.20;;;20.60;99.90;;;;;;5013545;28;20104;-73
2023/09/19 08:25:18;;;;;;;8.48;2.72;;;21.20;99.90;;;;;;4995269;28;20132;-73
2023/09/19 08:27:49;;;;;;;8.68;2.47;;;21.60;99.90;;;;;;5013568;28;20049;-78
2023/09/19 08:30:26;;;;;;;8.32;2.53;;;22.10;99.90;;;;;;5012999;28;20510;-77
2023/09/19 08:32:59;;;;;;;7.75;2.45;;;22.40;99.90;;;;;;5013076;28;20129;-73
2023/09/19 08:35:25;;;;;;;11.18;2.78;;;22.30;99.90;;;;;;5011837;28;20050;-73
2023/09/19 08:37:51;;;;;;;7.80;2.55;;;22.20;99.90;;;;;;5012060;28;20143;-72
2023/09/19 08:40:17;;;;;;;13.25;2.63;;;22.30;99.90;;;;;;5013406;28;20515;-71
2023/09/19 08:42:53;;;;;;;7.28;2.58;;;22.50;99.90;;;;;;5013007;28;20488;-77
2023/09/19 08:45:27;;;;;;;16.17;2.75;;;22.60;99.90;;;;;;4996203;28;20569;-71
2023/09/19 08:48:16;;;;;;;9.27;2.80;;;22.70;99.90;;;;;;5044672;28;20058;-70
2023/09/19 08:50:48;;;;;;;10.57;2.65;;;22.70;99.90;;;;;;5013345;28;20050;-71
2023/09/19 08:53:27;;;;;;;7.30;2.42;;;22.80;99.90;;;;;;4995847;28;20057;-71
2023/09/19 08:55:56;;;;;;;11.27;2.90;;;22.90;99.90;;;;;;5011700;28;20188;-71
2023/09/19 08:58:27;;;;;;;10.05;3.17;;;22.80;99.90;;;;;;5013104;28;20399;-71
2023/09/19 09:00:54;;;;;;;12.75;3.50;;;22.70;99.90;;;;;;5011762;28;20053;-73
2023/09/19 09:03:21;;;;;;;9.25;2.90;;;22.50;99.90;;;;;;5011864;28;20046;-73
2023/09/19 09:05:50;;;;;;;8.15;2.50;;;22.30;99.90;;;;;;5013439;28;20057;-79
2023/09/19 09:08:20;;;;;;;12.27;3.25;;;21.90;99.90;;;;;;4995012;28;20064;-70
2023/09/19 09:10:45;;;;;;;9.93;2.80;;;21.60;99.90;;;;;;5013068;28;20506;-71
2023/09/19 09:13:13;;;;;;;10.50;2.75;;;21.30;99.90;;;;;;4995110;28;20050;-71
2023/09/19 09:15:41;;;;;;;12.50;2.80;;;21.20;99.90;;;;;;5011981;28;20053;-70
2023/09/19 09:18:07;;;;;;;10.55;2.55;;;20.90;99.90;;;;;;5012507;28;20046;-70
2023/09/19 09:20:32;;;;;;;9.85;3.13;;;20.70;99.90;;;;;;5012733;28;20546;-68
2023/09/19 09:23:00;;;;;;;8.88;3.05;;;20.60;99.90;;;;;;5012369;28;20045;-70
2023/09/19 09:26:13;;;;;;;11.50;2.95;;;20.50;99.90;;;;;;5011803;28;20045;-69
2023/09/19 09:28:48;;;;;;;13.75;3.55;;;20.50;99.90;;;;;;5011857;28;20439;-68
2023/09/19 09:31:25;;;;;;;12.48;2.83;;;20.40;99.90;;;;;;5012188;28;20049;-70
2023/09/19 09:33:55;;;;;;;9.00;2.70;;;20.30;99.90;;;;;;5012712;28;20073;-77
2023/09/19 09:36:41;;;;;;;8.38;2.97;;;20.20;99.90;;;;;;5012566;28;20080;-69
2023/09/19 09:39:24;;;;;;;9.15;3.33;;;20.10;99.90;;;;;;5011521;28;20092;-70
2023/09/19 09:41:50;;;;;;;10.50;3.10;;;20.00;99.90;;;;;;4996099;28;20050;-69
2023/09/19 09:44:18;;;;;;;9.98;2.97;;;20.00;99.90;;;;;;5012130;28;20061;-69
2023/09/19 09:47:27;;;;;;;11.88;3.10;;;20.00;99.90;;;;;;5012440;28;20499;-69
2023/09/19 09:49:40;;;;;;;12.85;3.60;;;20.00;99.90;;;;;;5012101;28;20097;-69
2023/09/19 09:52:08;;;;;;;11.75;3.20;;;19.80;99.90;;;;;;5012807;28;20077;-70
2023/09/19 09:54:38;;;;;;;10.82;3.28;;;19.80;99.90;;;;;;5012118;28;20046;-70
2023/09/19 09:57:20;;;;;;;10.35;3.20;;;19.80;99.90;;;;;;5011855;28;20395;-71
2023/09/19 09:59:58;;;;;;;12.07;3.42;;;19.80;99.90;;;;;;4996006;28;20049;-70
2023/09/19 10:02:40;;;;;;;9.82;3.33;;;19.80;99.90;;;;;;5012010;28;20058;-70
2023/09/19 10:05:20;;;;;;;12.73;2.97;;;19.80;99.90;;;;;;5012611;28;20061;-71
2023/09/19 10:08:00;;;;;;;10.00;3.22;;;19.90;99.90;;;;;;5011161;28;20054;-72
2023/09/19 10:13:14;;;;;;;12.23;3.35;;;20.00;99.90;;;;;;5017526;28;20109;-71
2023/09/19 10:15:50;;;;;;;13.45;3.33;;;20.10;99.90;;;;;;4999751;28;20053;-71
2023/09/19 10:18:27;;;;;;;10.35;2.72;;;20.10;99.90;;;;;;5015762;28;20092;-70
2023/09/19 10:20:54;;;;;;;12.07;3.10;;;20.10;99.90;;;;;;5016940;28;20048;-69
2023/09/19 10:23:25;;;;;;;15.23;3.40;;;20.10;99.90;;;;;;5014988;28;20076;-71
2023/09/19 10:25:52;;;;;;;11.20;2.90;;;20.20;99.90;;;;;;5015688;28;20496;-71
2023/09/19 10:28:21;;;;;;;13.45;2.97;;;20.20;99.90;;;;;;5016604;28;20050;-70
2023/09/19 10:30:52;;;;;;;13.10;3.00;;;20.20;99.90;;;;;;4998833;28;20427;-70
2023/09/19 10:33:25;;;;;;;11.35;3.75;;;20.20;99.90;;;;;;5015924;28;20056;-70
2023/09/19 10:35:52;;;;;;;13.73;3.37;;;20.20;99.90;;;;;;5015255;28;20377;-70
2023/09/19 10:38:20;;;;;;;11.80;3.08;;;20.20;99.90;;;;;;4998055;28;20411;-72
2023/09/19 10:40:51;;;;;;;12.40;3.38;;;20.10;99.90;;;;;;5014740;28;20072;-69
2023/09/19 10:43:19;;;;;;;17.92;3.65;;;20.20;99.90;;;;;;5014302;28;20066;-68
2023/09/19 10:45:49;;;;;;;13.43;3.03;;;20.20;99.90;;;;;;5014841;28;20472;-69
2023/09/19 10:48:15;;;;;;;10.73;2.70;;;20.10;99.90;;;;;;5015926;28;20104;-69
2023/09/19 10:50:51;;;;;;;11.90;3.00;;;20.10;99.90;;;;;;5014798;28;20050;-70
2023/09/19 10:53:18;;;;;;;10.43;3.03;;;20.00;99.90;;;;;;5015608;28;20455;-69
2023/09/19 10:56:09;;;;;;;12.93;3.60;;;20.10;99.90;;;;;;5013721;28;20523;-79
2023/09/19 10:58:38;;;;;;;10.63;3.05;;;20.00;99.90;;;;;;5013026;28;20046;-70
2023/09/19 11:01:07;;;;;;;9.27;2.70;;;19.90;99.90;;;;;;5015243;28;20157;-78
2023/09/19 11:03:33;;;;;;;12.05;2.92;;;19.90;99.90;;;;;;5014634;28;20052;-68
2023/09/19 11:06:14;;;;;;;11.80;3.55;;;19.80;99.90;;;;;;5015518;28;20056;-70
2023/09/19 11:09:15;;;;;;;13.98;3.13;;;19.80;99.90;;;;;;5014158;28;20085;-71
2023/09/19 11:11:50;;;;;;;13.00;3.20;;;19.80;99.90;;;;;;4997800;28;20133;-70
2023/09/19 11:14:16;;;;;;;10.20;3.53;;;19.90;99.90;;;;;;5014103;28;20041;-70
2023/09/19 11:17:15;;;;;;;12.77;3.03;;;19.80;99.90;;;;;;5014541;28;20072;-77
2023/09/19 11:22:50;;;;;;;12.23;3.15;;;19.70;99.90;;;;;;5014419;28;20085;-69
2023/09/19 11:25:39;;;;;;;9.88;3.10;;;19.70;99.90;;;;;;4997247;28;20119;-69
2023/09/19 11:28:16;;;;;;;9.98;2.83;;;19.80;99.90;;;;;;5014090;28;20391;-69
2023/09/19 11:30:44;;;;;;;13.32;3.22;;;19.90;99.90;;;;;;5014075;28;20054;-69
2023/09/19 11:33:27;;;;;;;12.52;3.05;;;19.80;99.90;;;;;;5014356;28;20046;-76
2023/09/19 11:36:18;;;;;;;13.98;3.03;;;19.70;99.90;;;;;;4997787;28;20057;-69
2023/09/19 11:38:52;;;;;;;9.63;2.67;;;19.60;99.90;;;;;;5014766;28;20111;-69
2023/09/19 11:41:25;;;;;;;12.45;3.10;;;19.60;99.90;;;;;;5013510;28;20054;-69
2023/09/19 11:44:17;;;;;;;9.63;2.72;;;19.60;99.90;;;;;;5014758;28;20096;-69
2023/09/19 11:46:52;;;;;;;10.95;3.10;;;19.80;99.90;;;;;;5013703;28;20100;-69
2023/09/19 11:49:23;;;;;;;9.80;3.00;;;19.90;99.90;;;;;;4995703;28;20050;-70
2023/09/19 11:51:54;;;;;;;17.10;2.90;;;19.90;99.90;;;;;;5013496;28;20041;-73
2023/09/19 11:54:21;;;;;;;12.02;2.97;;;20.00;99.90;;;;;;5013081;28;20128;-69
2023/09/19 11:56:53;;;;;;;11.57;3.20;;;20.00;99.90;;;;;;5014755;28;20053;-69
2023/09/19 11:59:24;;;;;;;10.15;2.78;;;19.90;99.90;;;;;;5013930;28;20491;-70
2023/09/19 12:01:58;;;;;;;7.88;2.88;;;20.00;99.90;;;;;;4997003;28;20124;-69
2023/09/19 12:04:38;;;;;;;9.52;3.20;;;19.90;99.90;;;;;;4996812;28;20061;-69
2023/09/19 12:07:19;;;;;;;8.85;2.47;;;19.90;99.90;;;;;;5013281;28;20399;-71
2023/09/19 12:09:47;;;;;;;10.95;2.95;;;19.80;99.90;;;;;;4996772;28;20061;-70
2023/09/19 12:12:26;;;;;;;10.35;2.83;;;19.70;99.90;;;;;;5012956;28;20038;-70
2023/09/19 12:14:54;;;;;;;11.00;3.53;;;19.60;99.90;;;;;;5014336;28;20060;-70
2023/09/19 12:17:23;;;;;;;12.15;3.28;;;19.40;99.90;;;;;;5013968;28;20080;-71
2023/09/19 12:19:53;;;;;;;11.45;3.25;;;19.40;99.90;;;;;;5014370;28;20358;-69
2023/09/19 12:22:22;;;;;;;11.93;2.35;;;19.40;99.90;;;;;;5013901;28;20073;-71
2023/09/19 12:24:48;;;;;;;10.68;2.83;;;19.40;99.90;;;;;;5012823;28;20095;-70
2023/09/19 12:27:15;;;;;;;12.15;2.95;;;19.40;99.90;;;;;;5012851;28;20125;-70
2023/09/19 12:29:54;;;;;;;11.68;3.10;;;19.40;99.90;;;;;;5012943;28;20046;-70
2023/09/19 12:32:40;;;;;;;12.77;2.70;;;19.40;99.90;;;;;;5014255;28;20129;-74
2023/09/19 12:35:17;;;;;;;11.35;3.05;;;19.30;99.90;;;;;;4997700;28;20041;-70
2023/09/19 12:37:55;;;;;;;10.10;3.13;;;19.20;99.90;;;;;;5012214;28;20049;-70
2023/09/19 12:40:33;;;;;;;13.15;3.28;;;19.00;99.90;;;;;;5012145;28;20085;-74
2023/09/19 12:43:02;;;;;;;12.38;3.63;;;18.90;99.90;;;;;;5012786;28;20042;-73
2023/09/19 12:45:30;;;;;;;17.77;4.00;;;18.80;99.90;;;;;;5013186;28;20058;-70
2023/09/19 12:48:38;;;;;;;9.13;2.53;;;18.80;99.90;;;;;;4996299;28;20057;-71
2023/09/19 12:51:12;;;;;;;11.38;2.90;;;18.80;99.90;;;;;;5012305;28;20046;-70
2023/09/19 12:53:43;;;;;;;11.05;2.67;;;18.90;99.90;;;;;;5013328;28;20049;-71
2023/09/19 12:56:17;;;;;;;8.00;2.45;;;19.00;99.90;;;;;;5012156;28;20081;-78
2023/09/19 12:58:56;;;;;;;10.48;3.03;;;19.00;99.90;;;;;;5011446;28;20045;-72
2023/09/19 13:01:27;;;;;;;9.43;2.53;;;19.10;99.90;;;;;;5012394;28;20135;-78
2023/09/19 13:04:29;;;;;;;15.48;2.65;;;19.10;99.90;;;;;;5012890;28;20408;-71